Meteorología y climatología de Navarra
Datos de la estación - Meteo Navarra

Estación de Tudela (Montes del Cierzo) GN

Altitud 314 m.


Datos desde el 09/11/2019 hasta el 10/11/2019 en horario solar
Los datos son PROVISIONALES

Anterior Página 1 de 1 Siguiente Descargar: Formato para Excel 2000 o superior   Formato csv   Formato para OpenOffice Calc
Fecha Temperatura Humedad relativa Radiación global Insolación Precipitación Vel. viento 10 m Vel. viento 10 m Dir. viento 10 m
ºC % W/m² s l/m² m/s km/h º
09/11/2019 0:00 7.2 77 0.0 0 0.0 2.5 9.0 322
09/11/2019 0:10 7.2 76 0.0 0 0.0 2.8 10.1 325
09/11/2019 0:20 7.1 76 0.0 0 0.0 3.0 10.8 327
09/11/2019 0:30 6.9 77 0.0 0 0.0 2.9 10.3 317
09/11/2019 0:40 6.8 77 0.0 0 0.0 3.0 10.7 321
09/11/2019 0:50 6.9 77 0.0 0 0.0 3.1 11.1 318
09/11/2019 1:00 7.1 76 0.0 0 0.0 3.2 11.6 306
09/11/2019 1:10 7.4 75 0.0 0 0.0 3.6 12.9 305
09/11/2019 1:20 7.6 74 0.0 0 0.0 3.3 11.7 304
09/11/2019 1:30 7.5 75 0.0 0 0.0 3.1 11.1 301
09/11/2019 1:40 7.3 76 0.0 0 0.0 3.0 10.8 302
09/11/2019 1:50 7.1 77 0.0 0 0.0 3.0 10.8 308
09/11/2019 2:00 6.9 77 0.0 0 0.0 2.9 10.5 308
09/11/2019 2:10 6.9 77 0.0 0 0.0 2.8 10.0 305
09/11/2019 2:20 6.4 80 0.0 0 0.0 3.0 10.9 289
09/11/2019 2:30 6.1 81 0.0 0 0.0 3.1 11.1 293
09/11/2019 2:40 6.1 81 0.0 0 0.0 3.2 11.7 301
09/11/2019 2:50 6.6 79 0.0 0 0.0 3.3 11.8 308
09/11/2019 3:00 6.8 77 0.0 0 0.0 3.2 11.5 304
09/11/2019 3:10 7.0 77 0.0 0 0.0 3.2 11.4 310
09/11/2019 3:20 7.1 77 0.0 0 0.0 3.1 11.3 309
09/11/2019 3:30 7.1 77 0.0 0 0.0 3.7 13.4 309
09/11/2019 3:40 7.1 77 0.0 0 0.0 4.1 14.8 313
09/11/2019 3:50 7.1 77 0.0 0 0.0 4.7 16.8 311
09/11/2019 4:00 7.2 77 0.0 0 0.0 4.6 16.5 311
09/11/2019 4:10 7.0 77 0.0 0 0.0 4.3 15.5 311
09/11/2019 4:20 6.9 78 0.0 0 0.0 4.8 17.3 309
09/11/2019 4:30 7.1 78 0.0 0 0.0 4.5 16.1 315
09/11/2019 4:40 7.1 78 0.0 0 0.0 3.3 12.0 318
09/11/2019 4:50 7.1 78 0.0 0 0.0 3.6 13.0 306
09/11/2019 5:00 7.1 79 0.0 0 0.0 3.5 12.7 307
09/11/2019 5:10 7.2 78 0.0 0 0.0 4.2 15.1 309
09/11/2019 5:20 7.1 78 0.0 0 0.0 3.8 13.8 303
09/11/2019 5:30 7.2 78 0.0 0 0.0 3.3 11.9 305
09/11/2019 5:40 7.0 79 0.0 0 0.0 2.8 10.2 302
09/11/2019 5:50 7.0 79 0.0 0 0.0 3.2 11.5 311
09/11/2019 6:00 6.8 79 0.0 0 0.0 3.1 11.1 317
09/11/2019 6:10 6.7 79 0.0 0 0.0 3.4 12.1 310
09/11/2019 6:20 6.8 78 0.0 0 0.0 2.9 10.6 316
09/11/2019 6:30 6.9 78 0.0 0 0.0 2.3 8.4 322
09/11/2019 6:40 6.9 78 0.0 0 0.0 2.4 8.7 306
09/11/2019 6:50 7.0 78 0.0 0 0.0 1.6 5.9 322
09/11/2019 7:00 7.2 77 0.0 0 0.0 1.8 6.6 304
09/11/2019 7:10 7.3 76 0.0 0 0.0 1.9 6.7 310
09/11/2019 7:20 7.4 75 0.0 0 0.0 2.3 8.4 313
09/11/2019 7:30 7.5 74 10.9 0 0.0 2.0 7.2 314
09/11/2019 7:40 7.5 74 26.3 0 0.0 2.5 8.9 314
09/11/2019 7:50 7.6 74 34.2 0 0.0 2.1 7.5 320
09/11/2019 8:00 7.7 75 42.7 0 0.0 1.9 6.8 327
09/11/2019 8:10 7.7 75 57.4 0 0.0 2.4 8.6 323
09/11/2019 8:20 7.9 74 75.7 0 0.0 2.9 10.5 318
09/11/2019 8:30 8.0 73 108.9 0 0.0 2.8 10.1 323
09/11/2019 8:40 8.2 73 183.5 432 0.0 3.0 10.6 330
09/11/2019 8:50 8.8 71 220.7 600 0.0 3.0 10.8 329
09/11/2019 9:00 9.2 69 250.7 576 0.0 2.4 8.5 324
09/11/2019 9:10 9.4 68 300.2 566 0.0 2.1 7.7 314
09/11/2019 9:20 10.1 65 367.5 600 0.0 1.9 6.9 310
09/11/2019 9:30 10.4 63 399.8 600 0.0 2.9 10.3 302
09/11/2019 9:40 10.7 63 339.8 600 0.0 2.6 9.5 294
09/11/2019 9:50 11.2 61 421.4 600 0.0 2.9 10.3 306
09/11/2019 10:00 11.6 60 455.3 600 0.0 3.2 11.6 308
09/11/2019 10:10 11.8 59 443.4 600 0.0 2.6 9.2 319
09/11/2019 10:20 11.9 58 468.8 600 0.0 2.7 9.8 326
09/11/2019 10:30 12.2 58 465.9 574 0.0 2.6 9.2 319
09/11/2019 10:40 11.7 59 297.6 200 0.0 2.6 9.4 315
09/11/2019 10:50 11.9 58 385.5 564 0.0 2.7 9.5 311
09/11/2019 11:00 12.1 57 480.3 600 0.0 3.1 11.3 336
09/11/2019 11:10 12.7 56 472.3 600 0.0 1.8 6.3 327
09/11/2019 11:20 12.8 55 317.6 600 0.0 1.8 6.6 319
09/11/2019 11:30 12.5 57 379.5 600 0.0 2.4 8.5 341
09/11/2019 11:40 12.4 59 298.6 360 0.0 2.9 10.5 358
09/11/2019 11:50 12.5 59 414.0 600 0.0 3.9 13.9 348
09/11/2019 12:00 12.9 57 457.4 452 0.0 3.0 10.9 336
09/11/2019 12:10 12.5 57 133.4 0 0.0 2.2 7.9 317
09/11/2019 12:20 11.7 61 103.5 0 0.0 1.9 7.0 323
09/11/2019 12:30 11.5 65 173.7 0 0.0 2.4 8.6 339
09/11/2019 12:40 11.5 66 208.9 0 0.0 2.5 8.9 343
09/11/2019 12:50 11.5 67 211.2 0 0.0 3.6 12.8 352
09/11/2019 13:00 11.1 69 194.6 0 0.0 4.0 14.3 350
09/11/2019 13:10 10.7 71 203.4 0 0.0 4.1 14.7 352
09/11/2019 13:20 10.7 72 270.9 294 0.0 4.2 15.2 352
09/11/2019 13:30 11.1 70 431.2 600 0.0 3.3 12.0 338
09/11/2019 13:40 12.4 67 546.8 600 0.0 2.7 9.6 341
09/11/2019 13:50 11.9 68 453.0 600 0.0 3.9 13.9 8
09/11/2019 14:00 11.6 69 359.8 510 0.0 2.7 9.8 357
09/11/2019 14:10 11.5 69 239.1 600 0.0 2.6 9.3 353
09/11/2019 14:20 11.7 66 340.9 600 0.0 1.6 5.9 340
09/11/2019 14:30 11.8 66 180.9 258 0.0 1.6 5.9 342
09/11/2019 14:40 11.5 67 130.0 0 0.0 2.2 7.7 2
09/11/2019 14:50 11.0 68 101.6 0 0.0 1.7 5.9 20
09/11/2019 15:00 10.8 70 97.2 60 0.0 1.6 5.6 40
09/11/2019 15:10 10.9 71 206.7 600 0.0 1.8 6.4 41
09/11/2019 15:20 11.0 70 98.6 160 0.0 2.1 7.5 31
09/11/2019 15:30 10.6 71 35.8 0 0.0 2.7 9.5 17
09/11/2019 15:40 10.6 72 80.1 158 0.0 1.9 6.9 15
09/11/2019 15:50 10.7 72 68.0 94 0.0 2.2 8.0 13
09/11/2019 16:00 10.7 72 41.9 0 0.0 2.2 7.8 27
09/11/2019 16:10 10.5 72 23.9 0 0.0 1.7 6.1 34
09/11/2019 16:20 10.5 73 25.5 0 0.0 0.6 2.1 47
09/11/2019 16:30 10.5 75 14.1 0 0.0 0.8 3.0 13
09/11/2019 16:40 10.4 76 0.0 0 0.0 0.4 1.3 18
09/11/2019 16:50 10.2 77 0.0 0 0.0 0.5 1.7 24
09/11/2019 17:00 9.9 80 0.0 0 0.0 1.2 4.2 147
09/11/2019 17:10 9.7 81 0.0 0 0.0 0.8 2.8 152
09/11/2019 17:20 9.6 81 0.0 0 0.0 0.8 2.7 191
09/11/2019 17:30 9.6 82 0.0 0 0.0 1.3 4.6 218
09/11/2019 17:40 9.4 83 0.0 0 0.0 1.1 4.0 196
09/11/2019 17:50 9.3 84 0.0 0 0.0 0.7 2.4 177
09/11/2019 18:00 9.2 84 0.0 0 0.0 0.8 2.7 172
09/11/2019 18:10 9.2 83 0.0 0 0.0 0.7 2.3 182
09/11/2019 18:20 9.2 82 0.0 0 0.0 0.8 2.9 190
09/11/2019 18:30 9.2 84 0.0 0 0.0 0.9 3.4 184
09/11/2019 18:40 8.9 85 0.0 0 0.0 0.6 2.2 94
09/11/2019 18:50 8.8 85 0.0 0 0.0 0.8 2.7 132
09/11/2019 19:00 8.6 85 0.0 0 0.0 0.9 3.2 138
09/11/2019 19:10 8.7 83 0.0 0 0.0 0.8 2.8 145
09/11/2019 19:20 8.8 83 0.0 0 0.0 1.0 3.7 114
09/11/2019 19:30 8.8 84 0.0 0 0.0 1.6 5.9 140
09/11/2019 19:40 9.0 84 0.0 0 0.0 0.6 2.2 153
09/11/2019 19:50 9.1 85 0.0 0 0.2 1.1 4.1 348
09/11/2019 20:00 8.7 88 0.0 0 0.0 1.3 4.8 22
09/11/2019 20:10 8.6 90 0.0 0 0.0 1.5 5.4 19
09/11/2019 20:20 8.6 91 0.0 0 0.1 2.0 7.2 5
09/11/2019 20:30 8.5 91 0.0 0 0.3 2.7 9.9 347
09/11/2019 20:40 8.6 92 0.0 0 0.5 3.9 14.0 310
09/11/2019 20:50 8.6 91 0.0 0 0.2 5.4 19.4 312
09/11/2019 21:00 8.4 92 0.0 0 1.3 7.0 25.2 312
09/11/2019 21:10 8.2 93 0.0 0 1.1 5.4 19.4 312
09/11/2019 21:20 8.0 93 0.0 0 0.5 5.3 18.9 306
09/11/2019 21:30 7.9 93 0.0 0 0.2 5.6 20.2 307
09/11/2019 21:40 7.5 93 0.0 0 0.1 5.8 21.0 310
09/11/2019 21:50 7.3 93 0.0 0 0.1 5.1 18.3 316
09/11/2019 22:00 7.0 92 0.0 0 0.0 6.0 21.6 309
09/11/2019 22:10 6.9 90 0.0 0 0.0 5.4 19.4 311
09/11/2019 22:20 6.8 89 0.0 0 0.0 4.3 15.6 312
09/11/2019 22:30 6.8 91 0.0 0 0.0 4.1 14.8 309
09/11/2019 22:40 6.8 90 0.0 0 0.0 3.1 11.2 326
09/11/2019 22:50 6.7 90 0.0 0 0.0 2.6 9.2 319
09/11/2019 23:00 6.5 89 0.0 0 0.0 3.0 10.9 317
09/11/2019 23:10 6.5 89 0.0 0 0.0 2.6 9.3 314
09/11/2019 23:20 6.7 89 0.0 0 0.0 2.6 9.3 319
09/11/2019 23:30 6.7 90 0.0 0 0.0 2.9 10.5 317
09/11/2019 23:40 6.7 88 0.0 0 0.0 4.4 15.8 301
09/11/2019 23:50 6.9 85 0.0 0 0.0 4.7 17.0 301
Anterior Página 1 de 1 Siguiente

NOTA: Tipo de datos según el color:
   - Valores diarios o 10 minutos correctos
   - Valores diarios calculados a partir de un número de datos 10 minutos menor que 144 y mayor que 120, o de un número de datos semihorarios menor que 48 y mayor que 40 (caso de las estaciones de Riegos de Navarra y del MARM)
   - Valores diez minutos estimados


Contacto        Enlaces        Aviso legal